Time;durP1;ratioP1;P1;durP2;ratioP2;P2;SDS_P1;SDS_P2;PMS_P1;PMS_P2;Temp;Humidity;BMP_temperature;BMP_pressure;BME280_temperature;BME280_humidity;BME280_pressure;Samples;Min_cycle;Max_cycle;Signal;HPM_P1;HPM_P2
2024/01/17 00:00:02;;;;;;;;;;;;;;;-4.45;100.00;99781.75;4858976;29;19935;-71
2024/01/17 00:02:27;;;;;;;;;;;;;;;-4.48;100.00;99776.72;4852888;29;19924;-71
2024/01/17 00:04:54;;;;;;;;;;;;;;;-4.44;100.00;99759.75;4840550;29;20300;-72
2024/01/17 00:07:20;;;;;;;;;;;;;;;-4.45;100.00;99752.84;4840416;29;19985;-71
2024/01/17 00:09:45;;;;;;;;;;;;;;;-4.48;100.00;99739.97;4840813;29;19924;-71
2024/01/17 00:12:10;;;;;;;;;;;;;;;-4.49;100.00;99743.53;4840022;29;19938;-71
2024/01/17 00:14:36;;;;;;;;;;;;;;;-4.48;100.00;99742.59;4840666;29;20015;-71
2024/01/17 00:17:04;;;;;;;;;;;;;;;-4.51;100.00;99748.09;4841150;29;20007;-71
2024/01/17 00:19:31;;;;;;;;;;;;;;;-4.49;100.00;99738.28;4843588;29;20030;-71
2024/01/17 00:21:56;;;;;;;;;;;;;;;-4.44;100.00;99743.16;4843770;29;19959;-71
2024/01/17 00:24:21;;;;;;;;;;;;;;;-4.41;100.00;99741.09;4844058;29;19990;-71
2024/01/17 00:26:46;;;;;;;;;;;;;;;-4.40;100.00;99734.06;4843765;29;19928;-71
2024/01/17 00:29:11;;;;;;;;;;;;;;;-4.44;100.00;99730.88;4844299;29;19932;-72
2024/01/17 00:31:37;;;;;;;;;;;;;;;-4.43;100.00;99745.66;4844009;29;19971;-73
2024/01/17 00:34:02;;;;;;;;;;;;;;;-4.43;100.00;99737.78;4846572;29;20332;-72
2024/01/17 00:36:27;;;;;;;;;;;;;;;-4.49;100.00;99738.28;4850941;29;19925;-71
2024/01/17 00:38:52;;;;;;;;;;;;;;;-4.54;100.00;99729.13;4851940;29;20296;-72
2024/01/17 00:41:20;;;;;;;;;;;;;;;-4.54;100.00;99729.94;4860139;29;19925;-72
2024/01/17 00:43:47;;;;;;;;;;;;;;;-4.61;100.00;99729.63;4847010;29;19924;-72
2024/01/17 00:46:12;;;;;;;;;;;;;;;-4.57;100.00;99727.56;4842869;29;19984;-71
2024/01/17 00:48:37;;;;;;;;;;;;;;;-4.57;100.00;99714.44;4841458;29;19925;-71
2024/01/17 00:51:02;;;;;;;;;;;;;;;-4.61;100.00;99711.25;4843640;29;20077;-72
2024/01/17 00:53:28;;;;;;;;;;;;;;;-4.63;100.00;99710.53;4842623;29;20011;-72
2024/01/17 00:55:55;;;;;;;;;;;;;;;-4.67;100.00;99692.53;4844871;29;20038;-72
2024/01/17 00:58:20;;;;;;;;;;;;;;;-4.76;100.00;99684.44;4844532;29;19928;-71
2024/01/17 01:00:46;;;;;;;;;;;;;;;-4.84;100.00;99681.66;4855116;29;20441;-71
2024/01/17 01:03:11;;;;;;;;;;;;;;;-4.89;100.00;99691.69;4862975;29;19933;-71
2024/01/17 01:05:36;;;;;;;;;;;;;;;-4.91;100.00;99689.19;4847159;29;19936;-71
2024/01/17 01:08:01;;;;;;;;;;;;;;;-4.98;100.00;99679.31;4843109;29;20369;-71
2024/01/17 01:10:29;;;;;;;;;;;;;;;-4.99;100.00;99681.09;4843441;29;20388;-72
2024/01/17 01:12:54;;;;;;;;;;;;;;;-5.12;100.00;99669.94;4842255;29;20335;-71
2024/01/17 01:15:20;;;;;;;;;;;;;;;-5.17;100.00;99665.09;4841903;29;19924;-71
2024/01/17 01:17:45;;;;;;;;;;;;;;;-5.19;100.00;99667.00;4843966;29;19931;-71
2024/01/17 01:20:10;;;;;;;;;;;;;;;-5.11;100.00;99654.06;4841974;29;19921;-72
2024/01/17 01:22:39;;;;;;;;;;;;;;;-5.09;100.00;99644.28;4841679;29;20319;-71
2024/01/17 01:25:05;;;;;;;;;;;;;;;-5.14;100.00;99641.22;4843444;29;20279;-72
2024/01/17 01:27:30;;;;;;;;;;;;;;;-5.22;100.00;99646.25;4857464;29;19954;-72
2024/01/17 01:29:55;;;;;;;;;;;;;;;-5.25;100.00;99642.09;4857337;29;19958;-71
2024/01/17 01:32:21;;;;;;;;;;;;;;;-5.36;100.00;99640.34;4844830;29;20378;-71
2024/01/17 01:34:52;;;;;;;;;;;;;;;-5.51;100.00;99633.72;4842736;29;20733;-71
2024/01/17 01:37:18;;;;;;;;;;;;;;;-5.47;100.00;99632.47;4842765;29;20026;-71
2024/01/17 01:39:43;;;;;;;;;;;;;;;-5.41;100.00;99629.38;4843247;29;20361;-71
2024/01/17 01:42:08;;;;;;;;;;;;;;;-5.39;100.00;99632.72;4842894;29;20400;-71
2024/01/17 01:44:33;;;;;;;;;;;;;;;-5.35;100.00;99628.88;4843295;29;19924;-71
2024/01/17 01:47:01;;;;;;;;;;;;;;;-5.43;100.00;99618.19;4845322;29;19996;-71
2024/01/17 01:49:27;;;;;;;;;;;;;;;-5.43;100.00;99602.44;4846065;29;19924;-71
2024/01/17 01:51:52;;;;;;;;;;;;;;;-5.46;100.00;99605.31;4855102;29;20002;-70
2024/01/17 01:54:19;;;;;;;;;;;;;;;-5.48;100.00;99604.63;4858438;29;20366;-70
2024/01/17 01:56:45;;;;;;;;;;;;;;;-5.39;100.00;99603.03;4842908;29;20035;-71
2024/01/17 01:59:10;;;;;;;;;;;;;;;-5.46;100.00;99596.63;4843070;29;19956;-71
2024/01/17 02:01:35;;;;;;;;;;;;;;;-5.41;100.00;99591.84;4843153;29;19928;-71
2024/01/17 02:04:00;;;;;;;;;;;;;;;-5.41;100.00;99592.66;4842270;29;19932;-71
2024/01/17 02:06:26;;;;;;;;;;;;;;;-5.46;100.00;99586.13;4840882;29;19928;-72
2024/01/17 02:08:52;;;;;;;;;;;;;;;-5.44;100.00;99579.78;4840800;29;19953;-71
2024/01/17 02:11:18;;;;;;;;;;;;;;;-5.47;100.00;99580.03;4836939;29;20301;-71
2024/01/17 02:13:43;;;;;;;;;;;;;;;-5.44;100.00;99573.72;4840312;29;19935;-72
2024/01/17 02:16:08;;;;;;;;;;;;;;;-5.41;100.00;99569.06;4840734;29;19991;-72
2024/01/17 02:18:34;;;;;;;;;;;;;;;-5.40;100.00;99557.59;4855871;29;20288;-71
2024/01/17 02:20:59;;;;;;;;;;;;;;;-5.41;100.00;99555.94;4839823;29;19955;-72
2024/01/17 02:23:24;;;;;;;;;;;;;;;-5.41;100.00;99553.31;4841180;29;19924;-71
2024/01/17 02:25:56;;;;;;;;;;;;;;;-5.46;100.00;99552.84;4840827;29;19928;-72
2024/01/17 02:28:23;;;;;;;;;;;;;;;-5.49;100.00;99545.25;4841226;29;19939;-72
2024/01/17 02:30:48;;;;;;;;;;;;;;;-5.52;100.00;99545.50;4841840;29;19925;-71
2024/01/17 02:33:13;;;;;;;;;;;;;;;-5.43;100.00;99538.69;4840656;29;19924;-71
2024/01/17 02:35:38;;;;;;;;;;;;;;;-5.48;100.00;99534.63;4840773;29;19929;-72
2024/01/17 02:38:03;;;;;;;;;;;;;;;-5.43;100.00;99529.00;4840783;29;19924;-73
2024/01/17 02:40:29;;;;;;;;;;;;;;;-5.45;100.00;99520.44;4841550;29;19984;-72
2024/01/17 02:42:54;;;;;;;;;;;;;;;-5.37;100.00;99518.03;4841362;29;19928;-70
2024/01/17 02:45:20;;;;;;;;;;;;;;;-5.36;100.00;99519.69;4840365;29;19996;-71
2024/01/17 02:47:45;;;;;;;;;;;;;;;-5.36;100.00;99517.06;4840876;29;20346;-71
2024/01/17 02:50:14;;;;;;;;;;;;;;;-5.35;100.00;99516.09;4840357;29;20328;-71
2024/01/17 02:52:39;;;;;;;;;;;;;;;-5.37;100.00;99518.03;4840731;29;19924;-70
2024/01/17 02:55:05;;;;;;;;;;;;;;;-5.35;100.00;99516.09;4841933;29;20275;-71
2024/01/17 02:57:30;;;;;;;;;;;;;;;-5.43;100.00;99518.50;4840806;29;19928;-71
2024/01/17 02:59:55;;;;;;;;;;;;;;;-5.41;100.00;99510.53;4840483;29;19951;-71
2024/01/17 03:02:21;;;;;;;;;;;;;;;-5.43;100.00;99509.84;4845149;29;20010;-71
2024/01/17 03:04:46;;;;;;;;;;;;;;;-5.43;100.00;99505.41;4858837;29;20015;-71
2024/01/17 03:07:11;;;;;;;;;;;;;;;-5.50;100.00;99496.41;4858615;29;19946;-71
2024/01/17 03:09:37;;;;;;;;;;;;;;;-5.49;100.00;99483.16;4860159;29;20014;-71
2024/01/17 03:12:03;;;;;;;;;;;;;;;-5.50;100.00;99472.78;4859199;29;20395;-71
2024/01/17 03:14:31;;;;;;;;;;;;;;;-5.54;100.00;99468.75;4858599;29;20007;-71
2024/01/17 03:16:56;;;;;;;;;;;;;;;-5.48;100.00;99463.84;4860541;29;19924;-71
2024/01/17 03:19:22;;;;;;;;;;;;;;;-5.39;100.00;99462.22;4859477;29;20280;-71
2024/01/17 03:21:49;;;;;;;;;;;;;;;-5.35;100.00;99463.66;4859256;29;19951;-70
2024/01/17 03:24:14;;;;;;;;;;;;;;;-5.32;100.00;99457.31;4859898;29;20011;-70
2024/01/17 03:26:39;;;;;;;;;;;;;;;-5.29;100.00;99458.84;4858862;29;20020;-71
2024/01/17 03:29:04;;;;;;;;;;;;;;;-5.28;100.00;99448.22;4858910;29;20011;-71
2024/01/17 03:31:30;;;;;;;;;;;;;;;-5.27;100.00;99456.91;4859993;29;19926;-71
2024/01/17 03:33:55;;;;;;;;;;;;;;;-5.21;100.00;99457.25;4859319;29;19924;-72
2024/01/17 03:36:20;;;;;;;;;;;;;;;-5.20;100.00;99444.94;4858193;29;20011;-71
2024/01/17 03:38:45;;;;;;;;;;;;;;;-5.20;100.00;99439.69;4859896;29;19968;-71
2024/01/17 03:41:10;;;;;;;;;;;;;;;-5.14;100.00;99433.09;4858471;29;19924;-71
2024/01/17 03:43:36;;;;;;;;;;;;;;;-5.18;100.00;99432.53;4858059;29;19928;-71
2024/01/17 03:46:01;;;;;;;;;;;;;;;-5.24;100.00;99433.03;4859469;29;19980;-72
2024/01/17 05:17:15;;;;;;;;;;;;;;;-5.49;100.00;99241.91;5880680;23;20272;-72
2024/01/17 05:19:41;;;;;;;;;;;;;;;-5.38;100.00;99227.84;4879694;29;19927;-73
2024/01/17 05:22:06;;;;;;;;;;;;;;;-5.42;100.00;99236.13;4879303;29;19957;-73
2024/01/17 05:24:31;;;;;;;;;;;;;;;-5.44;100.00;99223.13;4879338;29;20000;-73
2024/01/17 05:26:56;;;;;;;;;;;;;;;-5.41;100.00;99222.06;4880244;29;20381;-73
2024/01/17 10:30:50;;;;;;;;;;;;;;;-2.62;93.48;98786.13;5997606;23;19931;31
2024/01/17 10:33:15;;;;;;;;;;;;;;;-2.48;92.04;98781.22;4841471;29;20378;-74
2024/01/17 10:35:47;;;;;;;;;;;;;;;-2.65;92.71;98781.19;4842290;29;19925;-75
2024/01/17 10:38:12;;;;;;;;;;;;;;;-2.61;92.23;98776.41;4839350;29;19932;-74
2024/01/17 10:40:42;;;;;;;;;;;;;;;-2.46;93.42;98768.66;4839263;29;20026;-74
2024/01/17 10:43:11;;;;;;;;;;;;;;;-2.54;93.44;98772.13;4841849;29;19932;-74
2024/01/17 10:45:37;;;;;;;;;;;;;;;-2.42;92.68;98770.00;4841077;29;19972;-76
2024/01/17 10:48:09;;;;;;;;;;;;;;;-2.29;92.04;98759.78;4841429;29;19959;-75
2024/01/17 10:50:34;;;;;;;;;;;;;;;-2.29;89.49;98761.59;4841139;29;19928;-75
2024/01/17 10:53:01;;;;;;;;;;;;;;;-2.28;89.76;98753.50;4841296;29;19929;-75
2024/01/17 10:55:27;;;;;;;;;;;;;;;-2.21;88.88;98743.16;4841079;29;19925;-74
2024/01/17 10:57:52;;;;;;;;;;;;;;;-2.23;88.75;98744.28;4825179;29;19924;-74
2024/01/17 11:00:24;;;;;;;;;;;;;;;-2.17;89.84;98743.63;4824789;29;20310;-74
2024/01/17 11:02:49;;;;;;;;;;;;;;;-2.31;91.52;98734.59;4840977;29;19929;-75
2024/01/17 11:05:15;;;;;;;;;;;;;;;-2.40;92.24;98728.50;4824895;29;20338;-75
2024/01/17 11:50:20;;;;;;;;;;;;;;;-1.88;87.56;98655.22;5993200;23;20307;31
2024/01/17 12:27:18;;;;;;;;;;;;;;;-1.85;86.15;98595.03;4989791;23;19935;-73
2024/01/17 12:29:47;;;;;;;;;;;;;;;-1.69;85.62;98586.22;4885588;29;19924;-73
2024/01/17 12:32:15;;;;;;;;;;;;;;;-1.74;85.69;98583.28;4881193;29;19935;-74
2024/01/17 12:34:41;;;;;;;;;;;;;;;-1.73;86.26;98584.13;4864967;29;20018;-74
2024/01/17 12:37:06;;;;;;;;;;;;;;;-1.70;86.09;98574.03;4864165;29;20011;-74
2024/01/17 12:39:34;;;;;;;;;;;;;;;-1.61;85.59;98574.81;4890979;29;19932;-74
2024/01/17 12:41:59;;;;;;;;;;;;;;;-1.62;85.42;98572.34;4893227;29;19930;-74
2024/01/17 12:44:25;;;;;;;;;;;;;;;-1.84;86.41;98553.69;4897690;29;19923;-75
2024/01/17 12:46:50;;;;;;;;;;;;;;;-1.65;85.59;98546.31;4876950;29;19930;-74
2024/01/17 12:49:15;;;;;;;;;;;;;;;-1.66;86.71;98547.31;4900391;29;20000;-74
2024/01/17 12:51:40;;;;;;;;;;;;;;;-1.72;86.33;98544.38;4902277;29;19932;-74
2024/01/17 12:54:06;;;;;;;;;;;;;;;-1.68;85.62;98529.03;4884347;29;20288;-74
2024/01/17 12:56:34;;;;;;;;;;;;;;;-1.74;86.22;98530.53;4874739;29;19935;-73
2024/01/17 12:59:03;;;;;;;;;;;;;;;-1.84;85.80;98529.94;4886650;29;19962;-74
2024/01/17 13:01:30;;;;;;;;;;;;;;;-1.85;87.10;98517.75;4873179;29;20299;-74
2024/01/17 13:04:07;;;;;;;;;;;;;;;-1.89;85.81;98519.09;4899482;29;20457;-74
2024/01/17 13:06:43;;;;;;;;;;;;;;;-1.81;85.60;98532.25;4881184;29;19990;-74
2024/01/17 13:09:18;;;;;;;;;;;;;;;-1.82;85.43;98520.03;4885249;29;19927;-74
2024/01/17 13:11:50;;;;;;;;;;;;;;;-1.92;88.20;98520.28;4880892;29;19924;-74
2024/01/17 13:14:16;;;;;;;;;;;;;;;-1.96;87.50;98526.06;4891565;29;20010;-74
2024/01/17 13:35:30;;;;;;;;;;;;;;;-2.06;91.59;98505.19;5852044;23;21625;-72
2024/01/17 13:56:11;;;;;;;;;;;;;;;-2.24;91.52;98493.09;4898400;29;20018;-74
2024/01/17 13:58:45;;;;;;;;;;;;;;;-2.28;90.94;98503.16;4898686;29;19924;-74
2024/01/17 14:12:10;;;;;;;;;;;;;;;-2.50;90.62;98482.84;4877749;29;19928;-74
2024/01/17 14:14:51;;;;;;;;;;;;;;;-2.52;91.65;98479.56;4872920;29;20060;-74
2024/01/17 14:20:31;;;;;;;;;;;;;;;-2.68;94.01;98476.00;4849892;29;19980;-74
2024/01/17 14:23:12;;;;;;;;;;;;;;;-2.65;94.59;98482.72;4878558;29;20014;-74
2024/01/17 14:25:43;;;;;;;;;;;;;;;-2.70;94.05;98477.16;4873617;29;20006;-74
2024/01/17 14:28:08;;;;;;;;;;;;;;;-2.69;94.30;98471.72;4886003;23;19931;-74
2024/01/17 14:30:34;;;;;;;;;;;;;;;-2.64;93.20;98465.94;4878908;29;19934;-74
2024/01/17 14:33:33;;;;;;;;;;;;;;;-2.70;93.41;98467.44;4879628;29;19920;-74
2024/01/17 14:38:35;;;;;;;;;;;;;;;-2.72;93.69;98465.97;5339047;23;20384;-74
2024/01/17 14:41:01;;;;;;;;;;;;;;;-2.72;93.79;98472.06;4897590;29;19924;-74
2024/01/17 14:43:37;;;;;;;;;;;;;;;-2.71;94.88;98475.50;4896511;29;20452;-76
2024/01/17 14:46:14;;;;;;;;;;;;;;;-2.70;95.34;98467.44;4897198;29;19923;-74
2024/01/17 14:48:42;;;;;;;;;;;;;;;-2.70;94.97;98467.44;4896963;29;19986;-74
2024/01/17 14:51:08;;;;;;;;;;;;;;;-2.71;95.12;98471.06;4896881;29;19939;-74
2024/01/17 14:53:33;;;;;;;;;;;;;;;-2.70;95.00;98461.34;4893713;29;19926;-74
2024/01/17 14:56:01;;;;;;;;;;;;;;;-2.69;94.67;98463.81;4905065;29;19923;-73
2024/01/17 14:58:27;;;;;;;;;;;;;;;-2.67;93.93;98468.91;4896991;29;19926;-74
2024/01/17 15:00:52;;;;;;;;;;;;;;;-2.68;94.44;98457.56;4897781;29;19919;-73
2024/01/17 15:03:17;;;;;;;;;;;;;;;-2.72;92.87;98453.63;4898047;29;19958;-74
2024/01/17 15:05:43;;;;;;;;;;;;;;;-2.73;94.00;98451.97;4904264;23;19935;-74
2024/01/17 15:08:11;;;;;;;;;;;;;;;-2.73;93.40;98449.34;4903683;23;19928;-74
2024/01/17 15:10:51;;;;;;;;;;;;;;;-2.76;94.77;98452.31;4898045;29;19923;-74
2024/01/17 15:13:35;;;;;;;;;;;;;;;-2.74;95.20;98452.97;4897312;29;19927;-74
2024/01/17 15:16:30;;;;;;;;;;;;;;;-2.73;94.74;98457.25;4897125;29;19979;-73
2024/01/17 15:18:55;;;;;;;;;;;;;;;-2.78;93.96;98454.28;4897363;29;19923;-73
2024/01/17 15:21:21;;;;;;;;;;;;;;;-2.72;93.97;98447.53;4897334;29;19931;-74
2024/01/17 15:23:46;;;;;;;;;;;;;;;-2.78;94.47;98443.75;4897852;29;19923;-74
2024/01/17 15:26:11;;;;;;;;;;;;;;;-2.80;94.62;98438.69;4898135;29;19934;-74
2024/01/17 15:28:36;;;;;;;;;;;;;;;-2.82;94.83;98431.94;4897983;29;19927;-75
2024/01/17 15:31:03;;;;;;;;;;;;;;;-2.83;95.13;98435.56;4897892;29;19934;-74
2024/01/17 15:33:28;;;;;;;;;;;;;;;-2.86;95.21;98428.00;4898511;29;20380;-74
2024/01/17 15:35:53;;;;;;;;;;;;;;;-2.83;95.46;98425.03;4899858;29;19923;-73
2024/01/17 15:38:19;;;;;;;;;;;;;;;-2.84;95.36;98426.03;4899237;29;19966;-73
2024/01/17 15:40:55;;;;;;;;;;;;;;;-2.87;95.61;98429.00;4905830;29;19923;-73
2024/01/17 15:43:23;;;;;;;;;;;;;;;-2.88;95.59;98422.09;4917701;29;19963;-74
2024/01/17 15:45:49;;;;;;;;;;;;;;;-2.88;95.70;98430.81;4894268;29;20292;-74
2024/01/17 15:48:15;;;;;;;;;;;;;;;-2.89;97.14;98434.41;4898656;29;19923;-74
2024/01/17 15:50:40;;;;;;;;;;;;;;;-2.90;97.10;98446.78;4900466;29;19930;-74
2024/01/17 15:53:05;;;;;;;;;;;;;;;-2.93;96.85;98438.41;4900348;29;19928;-74
2024/01/17 15:55:31;;;;;;;;;;;;;;;-2.95;98.49;98438.56;4901415;29;19923;-74
2024/01/17 15:58:33;;;;;;;;;;;;;;;-2.95;98.14;98437.75;4907273;23;20336;-74
2024/01/17 16:00:59;;;;;;;;;;;;;;;-2.98;100.00;98441.53;4936909;23;19927;-74
2024/01/17 16:03:27;;;;;;;;;;;;;;;-3.01;100.00;98434.00;4901202;29;20445;-73
2024/01/17 16:06:00;;;;;;;;;;;;;;;-2.98;100.00;98441.53;4901643;29;19948;-74
2024/01/17 16:08:26;;;;;;;;;;;;;;;-3.00;100.00;98438.25;4898028;29;19935;-74
2024/01/17 16:10:55;;;;;;;;;;;;;;;-3.04;100.00;98439.59;4912361;29;19924;-74
2024/01/17 16:13:20;;;;;;;;;;;;;;;-3.08;100.00;98443.53;4905841;29;19952;-74
2024/01/17 16:15:46;;;;;;;;;;;;;;;-3.07;100.00;98434.66;4893590;29;19927;-74
2024/01/17 16:18:12;;;;;;;;;;;;;;;-3.09;100.00;98432.19;4901035;29;20014;-74
2024/01/17 16:20:42;;;;;;;;;;;;;;;-3.12;100.00;98437.81;4882252;29;19931;-75
2024/01/17 16:23:08;;;;;;;;;;;;;;;-3.11;100.00;98442.06;4898207;29;19923;-74
2024/01/17 16:25:33;;;;;;;;;;;;;;;-3.11;100.00;98443.88;4907416;29;19927;-74
2024/01/17 16:27:58;;;;;;;;;;;;;;;-3.14;100.00;98442.41;4900139;29;19970;-73
2024/01/17 16:30:24;;;;;;;;;;;;;;;-3.09;100.00;98441.91;4898159;29;19931;-74
2024/01/17 16:32:49;;;;;;;;;;;;;;;-3.11;100.00;98443.88;4898719;29;19982;-74
2024/01/17 16:35:15;;;;;;;;;;;;;;;-3.20;100.00;98441.28;4900711;29;20017;-74
2024/01/17 16:37:43;;;;;;;;;;;;;;;-3.20;100.00;98433.38;4900402;29;20022;-74
2024/01/17 16:40:10;;;;;;;;;;;;;;;-3.20;100.00;98441.28;4912625;29;19914;-73
2024/01/17 16:42:39;;;;;;;;;;;;;;;-3.22;100.00;98439.78;4912698;29;19954;-73
2024/01/17 16:45:04;;;;;;;;;;;;;;;-3.22;100.00;98437.16;4895784;29;19923;-73
2024/01/17 16:47:31;;;;;;;;;;;;;;;-3.25;100.00;98438.31;4901471;29;19994;-74
2024/01/17 16:49:56;;;;;;;;;;;;;;;-3.25;100.00;98438.31;4900032;29;19930;-73
2024/01/17 16:52:24;;;;;;;;;;;;;;;-3.26;100.00;98433.22;4899458;29;20288;-74
2024/01/17 16:54:51;;;;;;;;;;;;;;;-3.25;100.00;98432.22;4894490;29;20080;-73
2024/01/17 16:57:16;;;;;;;;;;;;;;;-3.23;100.00;98440.78;4899536;29;19931;-73
2024/01/17 16:59:41;;;;;;;;;;;;;;;-3.27;100.00;98442.13;4899439;29;19927;-73
2024/01/17 17:02:06;;;;;;;;;;;;;;;-3.31;100.00;98441.59;4900436;29;19924;-73
2024/01/17 17:04:35;;;;;;;;;;;;;;;-3.33;100.00;98448.84;4900309;29;19979;-74
2024/01/17 17:07:00;;;;;;;;;;;;;;;-3.34;100.00;98447.19;4904983;29;19938;-73
2024/01/17 17:09:25;;;;;;;;;;;;;;;-3.35;100.00;98454.28;4917222;29;19912;-73
2024/01/17 17:11:51;;;;;;;;;;;;;;;-3.37;100.00;98455.44;4920057;29;19916;-72
2024/01/17 17:14:16;;;;;;;;;;;;;;;-3.37;100.00;98460.72;4902221;29;20284;-73
2024/01/17 17:16:45;;;;;;;;;;;;;;;-3.39;100.00;98466.13;4900781;29;20007;-73
2024/01/17 17:19:10;;;;;;;;;;;;;;;-3.42;100.00;98465.63;4900327;29;19995;-73
2024/01/17 17:21:35;;;;;;;;;;;;;;;-3.41;100.00;98467.28;4898733;29;20467;-73
2024/01/17 17:24:03;;;;;;;;;;;;;;;-3.44;100.00;98473.69;4898678;29;20447;-72
2024/01/17 17:26:28;;;;;;;;;;;;;;;-3.43;100.00;98471.88;4899107;29;19924;-73
2024/01/17 17:28:54;;;;;;;;;;;;;;;-3.47;100.00;98466.13;4898727;29;19923;-73
2024/01/17 17:31:20;;;;;;;;;;;;;;;-3.43;100.00;98462.16;4895403;29;19936;-72
2024/01/17 17:33:46;;;;;;;;;;;;;;;-3.46;100.00;98465.16;4899226;29;19924;-73
2024/01/17 17:36:11;;;;;;;;;;;;;;;-3.45;100.00;98463.34;4898393;29;20037;-72
2024/01/17 17:38:36;;;;;;;;;;;;;;;-3.44;100.00;98462.34;4897905;29;19930;-73
2024/01/17 17:41:02;;;;;;;;;;;;;;;-3.45;100.00;98458.06;4898952;29;19931;-72
2024/01/17 17:43:30;;;;;;;;;;;;;;;-3.49;100.00;98449.69;4898188;29;19923;-73
2024/01/17 17:45:55;;;;;;;;;;;;;;;-3.52;100.00;98453.47;4897417;29;20007;-74
2024/01/17 19:52:37;;;;;;;;;;;;;;;-4.21;100.00;98579.03;5752146;23;19936;-72
2024/01/17 20:20:54;;;;;;;;;;;;;;;-4.24;100.00;98614.34;5643112;23;19928;-74
2024/01/17 20:23:19;;;;;;;;;;;;;;;-4.21;100.00;98615.81;4884333;29;20284;-73
2024/01/17 20:25:47;;;;;;;;;;;;;;;-4.21;100.00;98619.25;4901224;29;19927;-73
2024/01/17 20:28:12;;;;;;;;;;;;;;;-4.17;100.00;98619.78;4880589;29;19931;-73
2024/01/17 20:30:39;;;;;;;;;;;;;;;-4.14;100.00;98625.56;4907272;23;19937;-74
2024/01/17 20:33:04;;;;;;;;;;;;;;;-4.09;100.00;98648.72;4900689;29;20020;-73
2024/01/17 20:35:29;;;;;;;;;;;;;;;-4.05;100.00;98639.53;4905924;29;19987;-74
2024/01/17 20:37:55;;;;;;;;;;;;;;;-4.03;100.00;98640.22;4903794;29;19923;-73
2024/01/17 20:40:20;;;;;;;;;;;;;;;-3.98;100.00;98648.47;4903984;29;19927;-72
2024/01/17 20:42:45;;;;;;;;;;;;;;;-3.96;100.00;98646.47;4919738;29;19931;-72
2024/01/17 20:45:11;;;;;;;;;;;;;;;-3.96;100.00;98640.41;4899602;29;19923;-72
2024/01/17 20:47:37;;;;;;;;;;;;;;;-3.95;100.00;98649.94;4940261;23;20393;-72
2024/01/17 20:50:05;;;;;;;;;;;;;;;-3.95;100.00;98655.19;4862561;29;20364;-72
2024/01/17 20:52:37;;;;;;;;;;;;;;;-3.95;100.00;98652.56;4863259;29;19925;-71
2024/01/17 20:55:03;;;;;;;;;;;;;;;-3.92;100.00;98654.88;4847153;29;19924;-73
2024/01/17 20:57:28;;;;;;;;;;;;;;;-3.90;100.00;98666.06;4862123;29;20233;-72
2024/01/17 20:59:53;;;;;;;;;;;;;;;-3.89;100.00;98672.97;4862557;29;19928;-74
2024/01/17 21:02:19;;;;;;;;;;;;;;;-3.87;100.00;98668.34;4858793;29;19924;-73
2024/01/17 21:04:48;;;;;;;;;;;;;;;-3.85;100.00;98676.09;4953571;23;19932;-73
2024/01/17 21:07:13;;;;;;;;;;;;;;;-3.83;100.00;98679.41;4898062;29;19935;-72
2024/01/17 21:09:38;;;;;;;;;;;;;;;-3.83;100.00;98671.50;4898107;29;19927;-73
2024/01/17 21:12:04;;;;;;;;;;;;;;;-3.82;100.00;98673.97;4898479;29;19924;-74
2024/01/17 21:26:55;;;;;;;;;;;;;;;-3.82;100.00;98704.72;4896939;29;19952;-73
2024/01/17 21:29:21;;;;;;;;;;;;;;;-3.82;100.00;98704.72;4897314;29;19946;-73
2024/01/17 21:31:46;;;;;;;;;;;;;;;-3.82;100.00;98705.53;4898235;29;20372;-73
2024/01/17 21:36:42;;;;;;;;;;;;;;;-3.85;100.00;98708.47;4902126;23;19935;-72
2024/01/17 21:39:32;;;;;;;;;;;;;;;-3.86;100.00;98704.19;4877828;29;19924;-73
2024/01/17 21:41:57;;;;;;;;;;;;;;;-3.87;100.00;98702.53;4881653;29;20285;-73
2024/01/17 21:44:24;;;;;;;;;;;;;;;-3.88;100.00;98708.75;4897402;29;20028;-73
2024/01/17 21:46:49;;;;;;;;;;;;;;;-3.87;100.00;98705.16;4897693;29;19919;-73
2024/01/17 21:49:16;;;;;;;;;;;;;;;-3.87;100.00;98715.66;4897465;29;20602;-74
2024/01/17 21:51:42;;;;;;;;;;;;;;;-3.88;100.00;98711.41;4897511;29;20010;-73
2024/01/17 21:54:07;;;;;;;;;;;;;;;-3.89;100.00;98712.41;4898208;29;20366;-74
2024/01/17 21:56:33;;;;;;;;;;;;;;;-3.88;100.00;98716.66;4897452;29;19924;-74
2024/01/17 21:58:58;;;;;;;;;;;;;;;-3.88;100.00;98721.91;4896898;29;19991;-73
2024/01/17 22:01:23;;;;;;;;;;;;;;;-3.88;100.00;98719.28;4898723;29;19920;-73
2024/01/17 22:03:49;;;;;;;;;;;;;;;-3.90;100.00;98718.63;4897036;29;20002;-73
2024/01/17 22:06:14;;;;;;;;;;;;;;;-3.90;100.00;98721.28;4896364;29;19923;-73
2024/01/17 22:08:42;;;;;;;;;;;;;;;-3.90;100.00;98730.94;4898513;29;20084;-74
2024/01/17 22:11:08;;;;;;;;;;;;;;;-3.91;100.00;98722.25;4897534;29;19954;-73
2024/01/17 22:13:36;;;;;;;;;;;;;;;-3.92;100.00;98720.59;4896689;29;20403;-74
2024/01/17 22:16:01;;;;;;;;;;;;;;;-3.93;100.00;98726.84;4897932;29;20365;-74
2024/01/17 22:18:26;;;;;;;;;;;;;;;-3.93;100.00;98724.19;4897168;29;19931;-73
2024/01/17 22:20:52;;;;;;;;;;;;;;;-3.93;100.00;98739.97;4896083;29;19919;-73
2024/01/17 22:23:17;;;;;;;;;;;;;;;-3.90;100.00;98746.72;4880918;29;20017;-73
2024/01/17 22:25:43;;;;;;;;;;;;;;;-3.91;100.00;98738.03;4895348;29;20042;-73
2024/01/17 22:28:08;;;;;;;;;;;;;;;-3.91;100.00;98735.38;4895775;29;19955;-73
2024/01/17 22:30:33;;;;;;;;;;;;;;;-3.90;100.00;98747.56;4897448;29;19930;-73
2024/01/17 22:33:01;;;;;;;;;;;;;;;-3.89;100.00;98749.19;4896514;29;20021;-73
